ADDS METAR Data INFO
IDs: Format: Raw Decoded Include TAF

Data at: 1338 UTC 23 Apr 2018

KALI 231253Z AUTO A3009 RMK AO2 SLPNO PWINO
KALI 231153Z AUTO A3008 RMK AO2 SLPNO 53024 PWINO $
KALI 231053Z AUTO A3004 RMK AO2 SLPNO PWINO $
KALI 230953Z AUTO A3002 RMK AO2 SLPNO PWINO $
KALI 230853Z AUTO A3001 RMK AO2 SLPNO 57010 PWINO $
KALI 230753Z AUTO A3002 RMK AO2 SLPNO PWINO $
KALI 230653Z AUTO A3003 RMK AO2 SLPNO PWINO $
KALI 230553Z AUTO A3004 RMK AO2 SLPNO 51010 PWINO $
KALI 230453Z AUTO A3004 RMK AO2 SLPNO PWINO $
KALI 230353Z AUTO A3002 RMK AO2 SLPNO PWINO $
KALI 230253Z AUTO A3001 RMK AO2 SLPNO 51017 PWINO $
KALI 230153Z AUTO A3000 RMK AO2 SLPNO PWINO $
KALI 230053Z AUTO A2999 RMK AO2 SLPNO PWINO $
KALI 222353Z AUTO A2996 RMK AO2 SLPNO 55005 PWINO $
KALI 222253Z AUTO 05009KT 10SM CLR 28/08 A2995 RMK AO2 SLP140 T02830083 $
KALI 222153Z AUTO 05005G15KT 10SM CLR 29/08 A2996 RMK AO2 SLP143 T02890078 $
KALI 222053Z AUTO 01009KT 10SM CLR 29/08 A2998 RMK AO2 SLP149 T02890083 58022 $
KALI 221953Z AUTO 02012KT 10SM CLR 28/08 A3000 RMK AO2 SLP157 T02830078 $
KALI 221853Z AUTO 36011KT 10SM CLR 28/09 A3003 RMK AO2 SLP165 T02780089 $
KALI 221753Z AUTO 01011KT 10SM CLR 26/11 A3005 RMK AO2 SLP171 T02610106 10267 20161 58009 $
KALI 221653Z AUTO 36012G21KT 10SM CLR 25/12 A3007 RMK AO2 SLP180 T02500117 $
KALI 221553Z AUTO 01013KT 10SM CLR 22/11 A3008 RMK AO2 SLP183 T02170111 $
KALI 221453Z AUTO 02013KT 10SM CLR 20/11 A3007 RMK AO2 SLP181 T02000111 52004 $
KALI 221353Z AUTO 03016G20KT 10SM CLR 18/12 A3007 RMK AO2 SLP180 T01780117 $
KALI 221253Z AUTO 16/14 A3006 RMK AO2 SLP178 T01610139 $
KALI 221249Z AUTO 16/14 A3006 RMK AO2 PWINO $
KALI 221153Z AUTO 02008KT 10SM BKN012 17/16 A3002 RMK AO2 SLP164 60006 70011 T01720156 10206 20172 51018
KALI 221149Z AUTO 03009KT 10SM BKN012 17/16 A3002 RMK AO2
KALI 221114Z AUTO 02013KT 10SM FEW011 18/16 A2999 RMK AO2 T01830156
KALI 221105Z AUTO 02017KT 10SM SCT005 BKN011 19/17 A2999 RMK AO2 T01890172
KALI 221053Z AUTO 02012KT 7SM BKN005 BKN010 19/18 A2999 RMK AO2 RAE01 CIG 005V009 SLP151 P0000 T01940183
KALI 220953Z AUTO 02010KT 3SM -RA BR BKN005 BKN010 OVC023 21/19 A2997 RMK AO2 RAB35 SLP144 P0006 T02060194
KALI 220944Z AUTO 36011KT 5SM -RA BR BKN005 OVC010 21/20 A2996 RMK AO2 RAB35 P0003 T02060200
KALI 220930Z AUTO 36010KT 6SM BR FEW004 OVC011 21/19 A2996 RMK AO2 T02060194
KALI 220917Z AUTO 36008KT 3SM BR OVC011 20/19 A2995 RMK AO2 T02000194
KALI 220853Z AUTO 02003KT 1 1/2SM BR OVC014 19/19 A2994 RMK AO2 SLP137 T01940189 53007
KALI 220846Z AUTO 01005KT 3/4SM BR VV014 19/19 A2995 RMK AO2 T01890189
KALI 220821Z AUTO 35003KT 1/4SM FG VV012 18/17 A2994 RMK AO2 T01780172
KALI 220813Z AUTO 00000KT 1/2SM FG VV013 18/17 A2993 RMK AO2 T01780172
KALI 220802Z AUTO 00000KT 1/4SM FG VV013 19/18 A2993 RMK AO2 T01890183
KALI 220753Z AUTO 00000KT 1/4SM FG VV015 18/18 A2993 RMK AO2 SLP132 T01830183
KALI 220653Z AUTO 00000KT 1/4SM FG OVC021 18/18 A2992 RMK AO2 SLP132 T01830183
KALI 220617Z AUTO 00000KT 1/4SM FG BKN025 19/19 A2992 RMK AO2 T01940194
KALI 220611Z AUTO 16003KT 3/4SM BR BKN025 20/19 A2992 RMK AO2 T02000194
KALI 220605Z AUTO 16003KT 2SM BR BKN029 20/19 A2992 RMK AO2 T02000194
KALI 220553Z AUTO 17003KT 6SM BR SCT033 21/20 A2992 RMK AO2 SLP130 T02060200 10256 20206 402720183 51006
KALI 220453Z AUTO 00000KT 9SM OVC032 22/21 A2992 RMK AO2 SLP128 T02220211
KALI 220433Z AUTO 18005KT 8SM BKN028 BKN034 22/21 A2991 RMK AO2 T02170206
KALI 220353Z AUTO 17006KT 8SM CLR 22/20 A2991 RMK AO2 SLP126 T02170200
KALI 220253Z AUTO 00000KT 10SM FEW023 BKN036 BKN044 23/21 A2990 RMK AO2 SLP124 T02280206 53023
KALI 220153Z AUTO 12003KT 10SM BKN033 OVC039 23/21 A2988 RMK AO2 SLP115 T02280211